Time;durP1;ratioP1;P1;durP2;ratioP2;P2;SDS_P1;SDS_P2;PMS_P1;PMS_P2;Temp;Humidity;BMP_temperature;BMP_pressure;BME280_temperature;BME280_humidity;BME280_pressure;Samples;Min_cycle;Max_cycle;Signal;HPM_P1;HPM_P2
2021/12/18 00:02:23;;;;;;;3.00;1.90;;;;;;;5.60;100.00;103139.75;7405827;19;20848;-45
2021/12/18 00:04:52;;;;;;;3.60;2.37;;;;;;;5.64;100.00;103135.06;7399318;19;20435;-43
2021/12/18 00:07:24;;;;;;;3.80;2.53;;;;;;;5.66;100.00;103130.13;7403790;19;20868;-44
2021/12/18 00:09:54;;;;;;;5.53;3.57;;;;;;;5.69;100.00;103122.72;7399033;19;20470;-44
2021/12/18 00:12:23;;;;;;;7.63;4.20;;;;;;;5.78;100.00;103121.09;7405646;19;20447;-50
2021/12/18 00:14:53;;;;;;;4.93;2.63;;;;;;;5.73;100.00;103122.28;7398982;19;20418;-43
2021/12/18 00:17:22;;;;;;;4.67;3.07;;;;;;;5.70;100.00;103123.63;7403614;19;20880;-45
2021/12/18 00:19:52;;;;;;;6.40;3.87;;;;;;;5.66;100.00;103114.75;7399340;19;20411;-43
2021/12/18 00:22:21;;;;;;;5.20;3.30;;;;;;;5.65;100.00;103112.94;7405611;19;20669;-48
2021/12/18 00:24:53;;;;;;;31.37;18.97;;;;;;;5.94;100.00;103107.22;7398536;19;20426;-46
2021/12/18 00:27:23;;;;;;;5.77;3.60;;;;;;;6.05;100.00;103111.78;7403340;19;20694;-46
2021/12/18 00:29:52;;;;;;;8.23;4.50;;;;;;;6.14;100.00;103105.72;7399922;19;20487;-48
2021/12/18 00:32:21;;;;;;;8.23;3.73;;;;;;;5.89;100.00;103103.31;7404884;19;20395;-49
2021/12/18 00:34:51;;;;;;;8.63;5.23;;;;;;;5.87;100.00;103112.50;7399051;19;21078;-45
2021/12/18 00:37:20;;;;;;;5.90;3.77;;;;;;;5.81;100.00;103111.13;7402895;19;20423;-47
2021/12/18 00:39:56;;;;;;;15.90;8.70;;;;;;;5.91;100.00;103114.63;7398125;19;20935;-44
2021/12/18 00:42:38;;;;;;;18.07;10.70;;;;;;;5.96;100.00;103118.53;7404786;19;20439;-43
2021/12/18 00:45:10;;;;;;;7.50;4.07;;;;;;;5.94;100.00;103117.47;7398970;19;20416;-45
2021/12/18 00:47:40;;;;;;;6.10;3.77;;;;;;;5.81;100.00;103115.38;7402386;19;20423;-43
2021/12/18 00:50:13;;;;;;;9.13;5.17;;;;;;;5.88;100.00;103116.84;7398189;19;20420;-45
2021/12/18 00:52:42;;;;;;;25.47;15.00;;;;;;;5.89;100.00;103114.47;7401433;19;20712;-45
2021/12/18 00:55:15;;;;;;;21.63;13.50;;;;;;;5.99;100.00;103110.25;7398018;19;20495;-48
2021/12/18 00:57:45;;;;;;;8.10;4.67;;;;;;;5.80;100.00;103113.56;7402206;19;20900;-49
2021/12/18 01:00:21;;;;;;;28.17;15.53;;;;;;;5.94;100.00;103109.78;7397504;19;20509;-44
2021/12/18 01:02:53;;;;;;;19.23;9.80;;;;;;;5.95;100.00;103114.19;7405531;19;20467;-44
2021/12/18 01:05:23;;;;;;;11.33;4.20;;;;;;;5.87;100.00;103112.50;7396990;19;20478;-45
2021/12/18 01:07:54;;;;;;;12.07;6.37;;;;;;;5.85;100.00;103111.44;7402131;19;20686;-44
2021/12/18 01:10:40;;;;;;;18.03;8.03;;;;;;;5.86;100.00;103109.03;7397206;19;20423;-45
2021/12/18 01:13:14;;;;;;;7.33;4.30;;;;;;;5.73;100.00;103109.47;7403745;19;20384;-43
2021/12/18 01:15:47;;;;;;;22.13;12.03;;;;;;;5.73;100.00;103111.13;7396711;19;20570;-45
2021/12/18 01:23:41;;;;;;;7.17;3.53;;;;;;;5.62;100.00;103102.38;7403480;19;20538;-43
2021/12/18 01:26:13;;;;;;;15.90;9.17;;;;;;;5.76;100.00;103108.88;7396319;19;20422;-44
2021/12/18 01:28:43;;;;;;;14.40;8.77;;;;;;;5.80;100.00;103108.44;7402922;19;20394;-46
2021/12/18 01:31:12;;;;;;;9.57;5.17;;;;;;;5.90;100.00;103110.25;7396879;19;20423;-47
2021/12/18 01:33:42;;;;;;;13.93;8.30;;;;;;;5.97;100.00;103110.09;7402849;19;20399;-47
2021/12/18 01:36:11;;;;;;;5.17;3.30;;;;;;;5.86;100.00;103114.16;7395858;19;20418;-43
2021/12/18 01:38:41;;;;;;;5.83;3.00;;;;;;;5.87;100.00;103110.84;7400364;19;20438;-47
2021/12/18 01:41:14;;;;;;;7.90;4.10;;;;;;;5.82;100.00;103104.34;7395548;19;20435;-44
2021/12/18 01:44:23;;;;;;;7.47;4.50;;;;;;;5.83;100.00;103102.72;7402603;19;20855;-44
2021/12/18 01:46:59;;;;;;;11.57;4.90;;;;;;;6.01;100.00;103099.38;7394742;19;20412;-47
2021/12/18 01:52:21;;;;;;;8.93;4.73;;;;;;;5.73;100.00;103100.88;7402391;19;20386;-45
2021/12/18 01:54:50;;;;;;;9.07;5.00;;;;;;;5.71;100.00;103102.38;7395895;19;20407;-44
2021/12/18 01:57:23;;;;;;;13.03;5.73;;;;;;;5.72;100.00;103102.53;7400628;19;20872;-45
2021/12/18 01:59:52;;;;;;;9.37;5.47;;;;;;;5.68;100.00;103100.41;7395981;19;20471;-45
2021/12/18 02:02:22;;;;;;;13.37;5.40;;;;;;;5.65;100.00;103100.13;7399532;19;20384;-45
2021/12/18 02:04:52;;;;;;;11.27;5.93;;;;;;;5.60;100.00;103099.69;7395572;19;20976;-44
2021/12/18 02:07:21;;;;;;;11.30;5.70;;;;;;;5.67;100.00;103109.78;7400291;19;20485;-44
2021/12/18 02:10:01;;;;;;;9.23;4.53;;;;;;;5.61;100.00;103106.59;7395370;19;20423;-48
2021/12/18 02:12:42;;;;;;;15.87;6.87;;;;;;;5.65;100.00;103103.56;7398425;19;20881;-46
2021/12/18 02:20:45;;;;;;;13.70;5.50;;;;;;;5.78;100.00;103105.72;7394866;19;20476;-43
2021/12/18 02:23:15;;;;;;;11.87;5.03;;;;;;;5.71;100.00;103104.94;7401357;19;20392;-45
2021/12/18 02:25:46;;;;;;;15.77;6.93;;;;;;;5.66;100.00;103096.81;7395958;19;20447;-47
2021/12/18 02:28:19;;;;;;;14.10;6.40;;;;;;;5.62;100.00;103102.38;7399750;19;20479;-44
2021/12/18 02:30:50;;;;;;;16.27;6.97;;;;;;;5.68;100.00;103102.97;7394741;19;20702;-43
2021/12/18 02:33:19;;;;;;;15.70;6.07;;;;;;;5.76;100.00;103103.75;7400930;19;20471;-50
2021/12/18 02:35:54;;;;;;;19.53;7.73;;;;;;;5.76;100.00;103101.19;7393941;19;20479;-45
2021/12/18 02:38:31;;;;;;;16.23;6.20;;;;;;;5.74;100.00;103097.59;7399187;19;20411;-47
2021/12/18 02:41:15;;;;;;;19.23;7.43;;;;;;;5.69;100.00;103089.41;7394235;19;20415;-43
2021/12/18 02:43:45;;;;;;;18.83;8.37;;;;;;;5.80;100.00;103087.94;7399615;19;20376;-43
2021/12/18 02:46:19;;;;;;;18.47;7.70;;;;;;;5.67;100.00;103078.13;7393928;19;20684;-45
2021/12/18 02:48:50;;;;;;;17.47;7.13;;;;;;;5.68;100.00;103082.50;7400272;19;20387;-44
2021/12/18 02:51:23;;;;;;;17.87;7.07;;;;;;;5.68;100.00;103082.50;7394534;19;20427;-44
2021/12/18 02:53:54;;;;;;;18.73;8.00;;;;;;;5.65;100.00;103082.19;7400304;19;20392;-43
2021/12/18 02:56:25;;;;;;;19.23;7.17;;;;;;;5.67;100.00;103075.56;7393852;19;20880;-45
2021/12/18 02:58:57;;;;;;;15.80;6.63;;;;;;;5.65;100.00;103077.09;7399962;19;20841;-46
2021/12/18 03:01:28;;;;;;;18.30;7.77;;;;;;;5.63;100.00;103078.56;7393580;19;20420;-45
2021/12/18 03:04:00;;;;;;;19.93;7.07;;;;;;;5.61;100.00;103077.50;7399923;19;20392;-47
2021/12/18 03:06:37;;;;;;;21.10;7.77;;;;;;;5.61;100.00;103075.88;7392719;19;20430;-43
2021/12/18 03:09:32;;;;;;;18.30;8.03;;;;;;;5.62;100.00;103079.31;7399423;19;20392;-43
2021/12/18 03:23:14;;;;;;;19.97;8.43;;;;;;;5.72;100.00;103056.44;7397911;19;20443;-46
2021/12/18 03:25:44;;;;;;;21.33;9.00;;;;;;;5.74;100.00;103052.34;7392987;19;20470;-43
2021/12/18 03:28:14;;;;;;;22.17;8.83;;;;;;;5.75;100.00;103050.72;7398263;19;20503;-43
2021/12/18 03:30:43;;;;;;;16.57;8.80;;;;;;;5.75;100.00;103054.16;7393049;19;20478;-44
2021/12/18 03:33:13;;;;;;;21.37;9.00;;;;;;;5.75;100.00;103053.28;7399234;19;20693;-45
2021/12/18 03:35:42;;;;;;;17.73;9.07;;;;;;;5.79;100.00;103053.72;7392648;19;20716;-45
2021/12/18 03:38:14;;;;;;;18.67;9.33;;;;;;;5.87;100.00;103051.00;7397599;19;20490;-47
2021/12/18 03:40:44;;;;;;;22.47;8.30;;;;;;;5.83;100.00;103048.91;7393092;19;20495;-45
2021/12/18 03:43:13;;;;;;;18.60;8.60;;;;;;;5.77;100.00;103051.75;7397329;19;20384;-44
2021/12/18 03:45:43;;;;;;;17.20;8.20;;;;;;;5.99;100.00;103049.63;7392299;19;20690;-43
2021/12/18 03:48:12;;;;;;;14.20;8.30;;;;;;;5.90;100.00;103041.06;7397057;19;20432;-44
2021/12/18 03:50:46;;;;;;;15.77;7.70;;;;;;;5.96;100.00;103049.34;7392684;19;20419;-44
2021/12/18 03:53:18;;;;;;;14.43;8.03;;;;;;;5.94;100.00;103040.59;7398775;19;20596;-49
2021/12/18 03:55:47;;;;;;;14.37;7.83;;;;;;;5.90;100.00;103041.94;7391781;19;20415;-44
2021/12/18 03:58:17;;;;;;;15.03;6.73;;;;;;;5.91;100.00;103045.44;7396878;19;20430;-44
2021/12/18 04:00:46;;;;;;;13.13;7.20;;;;;;;5.97;100.00;103035.78;7392110;19;20423;-44
2021/12/18 04:03:16;;;;;;;19.17;8.30;;;;;;;6.00;100.00;103041.19;7396719;19;20387;-45
2021/12/18 04:05:45;;;;;;;17.43;8.33;;;;;;;5.99;100.00;103034.25;7391300;19;20449;-43
2021/12/18 04:08:18;;;;;;;16.20;8.70;;;;;;;5.94;100.00;103038.03;7396377;19;20495;-43
2021/12/18 04:10:47;;;;;;;17.33;7.63;;;;;;;5.91;100.00;103030.94;7391776;19;20403;-44
2021/12/18 04:13:16;;;;;;;13.60;7.17;;;;;;;5.94;100.00;103027.78;7397982;19;20853;-44
2021/12/18 04:15:46;;;;;;;14.37;8.20;;;;;;;5.97;100.00;103033.22;7391831;19;20419;-46
2021/12/18 04:18:15;;;;;;;14.43;7.53;;;;;;;6.02;100.00;103029.47;7396102;19;20416;-43
2021/12/18 04:20:45;;;;;;;17.80;9.47;;;;;;;6.02;100.00;103032.03;7392215;19;20423;-42
2021/12/18 04:23:14;;;;;;;19.60;9.20;;;;;;;6.06;100.00;103033.25;7396461;19;20394;-42
2021/12/18 04:25:47;;;;;;;13.67;7.03;;;;;;;6.04;100.00;103024.47;7392605;19;20487;-46
2021/12/18 04:28:16;;;;;;;16.13;7.77;;;;;;;6.04;100.00;103027.03;7402991;19;20415;-44
2021/12/18 04:30:46;;;;;;;14.00;7.20;;;;;;;6.11;100.00;103024.34;7398831;19;20425;-47
2021/12/18 04:33:15;;;;;;;13.73;6.80;;;;;;;5.94;100.00;103022.66;7404963;19;20383;-44
2021/12/18 04:35:45;;;;;;;16.20;6.90;;;;;;;5.87;100.00;103010.91;7397978;19;20708;-45
2021/12/18 04:38:14;;;;;;;11.60;6.03;;;;;;;5.92;100.00;103016.47;7402469;19;20422;-44
2021/12/18 04:40:46;;;;;;;11.60;6.57;;;;;;;5.97;100.00;103017.84;7398338;19;20427;-47
2021/12/18 04:43:16;;;;;;;15.80;7.83;;;;;;;6.02;100.00;103019.22;7403444;19;21226;-43
2021/12/18 04:45:45;;;;;;;16.80;7.90;;;;;;;5.93;100.00;103018.28;7397785;19;20423;-44
2021/12/18 04:48:14;;;;;;;13.00;6.73;;;;;;;5.93;100.00;103013.16;7402335;19;20431;-43
2021/12/18 04:50:44;;;;;;;10.67;6.70;;;;;;;5.89;100.00;103001.72;7398392;19;20666;-44
2021/12/18 04:53:14;;;;;;;16.13;6.87;;;;;;;5.88;100.00;103009.25;7404456;19;20716;-42
2021/12/18 04:55:43;;;;;;;12.27;6.90;;;;;;;5.96;100.00;103003.22;7397740;19;20938;-46
2021/12/18 04:58:15;;;;;;;14.77;7.67;;;;;;;5.98;100.00;103004.25;7402042;19;20410;-46
2021/12/18 05:00:47;;;;;;;10.30;5.83;;;;;;;5.86;100.00;103000.50;7397586;19;20415;-44
2021/12/18 05:03:18;;;;;;;9.03;5.00;;;;;;;5.89;100.00;102996.59;7402600;19;20412;-47
2021/12/18 05:05:48;;;;;;;7.70;4.50;;;;;;;5.86;100.00;102995.38;7397394;19;20423;-44
2021/12/18 05:08:18;;;;;;;7.37;4.17;;;;;;;5.78;100.00;102995.56;7401619;19;20498;-42
2021/12/18 05:10:48;;;;;;;5.57;3.73;;;;;;;5.88;100.00;102983.63;7397995;19;20714;-44
2021/12/18 05:13:20;;;;;;;4.77;2.77;;;;;;;5.81;100.00;102983.03;7403758;19;20448;-48
2021/12/18 05:15:50;;;;;;;5.87;2.83;;;;;;;5.81;100.00;102988.16;7396942;19;20496;-42
2021/12/18 05:18:19;;;;;;;4.50;2.87;;;;;;;5.84;100.00;102990.09;7401532;19;20425;-43
2021/12/18 05:20:49;;;;;;;4.20;2.80;;;;;;;5.83;100.00;102995.09;7396788;19;20441;-43
2021/12/18 05:23:18;;;;;;;6.93;4.20;;;;;;;5.87;100.00;102990.41;7402328;19;20638;-47
2021/12/18 05:25:47;;;;;;;10.73;5.00;;;;;;;5.88;100.00;102992.22;7396384;19;20503;-43
2021/12/18 05:28:19;;;;;;;10.00;5.70;;;;;;;5.74;100.00;102990.88;7401075;19;20487;-43
2021/12/18 05:30:49;;;;;;;11.93;6.97;;;;;;;5.80;100.00;102988.03;7396884;19;20494;-44
2021/12/18 05:33:19;;;;;;;11.07;6.87;;;;;;;5.80;100.00;102980.34;7403063;19;20397;-42
2021/12/18 05:35:48;;;;;;;14.17;7.23;;;;;;;5.75;100.00;102987.56;7396662;19;20430;-43
2021/12/18 05:38:18;;;;;;;15.80;7.73;;;;;;;5.77;100.00;102988.63;7399449;19;20480;-43
2021/12/18 05:40:47;;;;;;;14.30;9.10;;;;;;;5.71;100.00;102979.44;7396258;19;20510;-45
2021/12/18 05:43:19;;;;;;;16.90;10.27;;;;;;;5.68;100.00;102977.47;7401927;19;20400;-44
2021/12/18 05:45:49;;;;;;;18.23;10.50;;;;;;;5.67;100.00;102983.34;7396082;19;20410;-44
2021/12/18 05:48:18;;;;;;;19.10;10.90;;;;;;;5.72;100.00;102992.38;7400672;19;20433;-45
2021/12/18 05:50:48;;;;;;;15.90;9.77;;;;;;;5.73;100.00;102983.94;7396199;19;20411;-44
2021/12/18 05:53:18;;;;;;;20.93;10.03;;;;;;;5.86;100.00;102977.44;7403024;19;20459;-46
2021/12/18 05:55:47;;;;;;;16.87;9.90;;;;;;;5.86;100.00;102982.56;7395598;19;20419;-47
2021/12/18 05:58:19;;;;;;;18.40;10.10;;;;;;;5.79;100.00;102978.50;7400421;19;20866;-43
2021/12/18 06:00:49;;;;;;;16.90;9.03;;;;;;;5.66;100.00;102976.44;7395526;19;20471;-45
2021/12/18 06:03:18;;;;;;;13.90;8.50;;;;;;;5.64;100.00;102977.94;7401497;19;20455;-43
2021/12/18 06:05:48;;;;;;;14.10;8.20;;;;;;;5.76;100.00;102976.56;7395052;19;20419;-44
2021/12/18 06:08:17;;;;;;;13.70;8.10;;;;;;;5.82;100.00;102973.69;7399985;19;20426;-45
2021/12/18 06:10:47;;;;;;;26.33;14.83;;;;;;;5.80;100.00;102976.09;7395243;19;20487;-45
2021/12/18 06:13:16;;;;;;;11.57;7.50;;;;;;;5.66;100.00;102976.44;7401737;19;20469;-44
2021/12/18 06:15:49;;;;;;;10.73;6.37;;;;;;;5.61;100.00;102972.50;7394778;19;20428;-47
2021/12/18 06:18:19;;;;;;;9.73;6.27;;;;;;;5.62;100.00;102979.44;7399754;19;20426;-44
2021/12/18 06:20:49;;;;;;;8.33;6.30;;;;;;;5.61;100.00;102985.31;7394932;19;20403;-43
2021/12/18 06:23:18;;;;;;;8.40;5.90;;;;;;;5.67;100.00;102989.41;7400910;19;20455;-46
2021/12/18 06:25:48;;;;;;;11.87;7.10;;;;;;;5.64;100.00;102972.81;7395380;19;20712;-46
2021/12/18 06:28:17;;;;;;;11.10;7.50;;;;;;;5.62;100.00;102971.75;7399595;19;20483;-44
2021/12/18 06:30:49;;;;;;;10.90;7.17;;;;;;;5.62;100.00;102970.09;7394785;19;20680;-45
2021/12/18 06:33:19;;;;;;;10.37;6.80;;;;;;;5.56;100.00;102971.16;7400978;19;20867;-47
2021/12/18 06:35:48;;;;;;;15.90;7.67;;;;;;;5.56;100.00;102968.59;7394153;19;20454;-46
2021/12/18 06:38:18;;;;;;;13.73;7.63;;;;;;;5.57;100.00;102967.81;7399296;19;20419;-44
2021/12/18 06:40:48;;;;;;;12.77;7.90;;;;;;;5.57;100.00;102975.50;7394406;19;20411;-45
2021/12/18 06:43:17;;;;;;;13.30;7.53;;;;;;;5.57;100.00;102984.13;7400397;19;20412;-43
2021/12/18 06:45:49;;;;;;;11.93;7.30;;;;;;;5.54;100.00;102987.28;7393879;19;20415;-47
2021/12/18 06:48:19;;;;;;;11.77;7.00;;;;;;;5.52;100.00;102983.66;7398890;19;20414;-47
2021/12/18 06:50:50;;;;;;;13.40;7.37;;;;;;;5.52;100.00;102988.78;7391802;19;21398;-46
2021/12/18 06:53:20;;;;;;;11.03;6.67;;;;;;;5.48;100.00;102980.66;7400488;19;20436;-45
2021/12/18 06:55:49;;;;;;;12.43;7.97;;;;;;;5.48;100.00;102984.13;7393671;19;20412;-44
2021/12/18 06:58:23;;;;;;;10.20;6.97;;;;;;;5.49;100.00;102983.34;7398659;19;20436;-44
2021/12/18 07:00:55;;;;;;;15.43;7.53;;;;;;;5.45;100.00;102986.38;7395197;19;20510;-45
2021/12/18 07:03:25;;;;;;;11.60;7.57;;;;;;;5.45;100.00;102991.50;7399956;19;20396;-42
2021/12/18 07:05:55;;;;;;;11.37;6.93;;;;;;;5.48;100.00;102985.78;7392840;19;20891;-45
2021/12/18 07:08:24;;;;;;;10.70;7.03;;;;;;;5.54;100.00;102982.16;7397825;19;20878;-43
2021/12/18 07:10:54;;;;;;;11.33;6.27;;;;;;;5.54;100.00;102987.28;7393433;19;20418;-43
2021/12/18 07:13:23;;;;;;;10.07;6.70;;;;;;;5.56;100.00;102981.38;7399655;19;20441;-47
2021/12/18 07:15:55;;;;;;;12.10;7.07;;;;;;;5.56;100.00;102976.28;7393228;19;20872;-45
2021/12/18 07:18:25;;;;;;;9.80;6.00;;;;;;;5.56;100.00;102978.84;7398093;19;20415;-45
2021/12/18 07:20:54;;;;;;;9.40;6.20;;;;;;;5.46;100.00;102975.38;7393084;19;20899;-44
2021/12/18 07:23:24;;;;;;;9.33;5.33;;;;;;;5.46;100.00;102971.91;7399327;19;20464;-46
2021/12/18 07:25:53;;;;;;;12.10;5.80;;;;;;;5.43;100.00;102977.63;7392348;19;20412;-45
2021/12/18 07:28:23;;;;;;;10.00;5.97;;;;;;;5.49;100.00;102973.09;7397794;19;20430;-46
2021/12/18 07:30:52;;;;;;;13.23;7.03;;;;;;;5.56;100.00;102983.94;7392438;19;20423;-44
2021/12/18 07:33:24;;;;;;;15.47;6.63;;;;;;;5.49;100.00;102978.22;7398886;19;20391;-45
2021/12/18 07:35:54;;;;;;;12.80;6.87;;;;;;;5.49;100.00;102975.66;7392004;19;20487;-45
2021/12/18 07:38:23;;;;;;;13.10;7.80;;;;;;;5.49;100.00;102985.03;7396983;19;20484;-47
2021/12/18 07:40:53;;;;;;;20.60;10.60;;;;;;;5.51;100.00;102981.88;7391940;19;20487;-47
2021/12/18 07:43:22;;;;;;;13.33;8.20;;;;;;;5.52;100.00;102978.53;7398837;19;20402;-48
2021/12/18 07:45:52;;;;;;;17.53;8.93;;;;;;;5.49;100.00;102983.34;7391236;19;20427;-48
2021/12/18 07:48:24;;;;;;;15.43;8.90;;;;;;;5.50;100.00;102984.28;7397091;19;20497;-43
2021/12/18 07:50:54;;;;;;;15.13;9.10;;;;;;;5.53;100.00;102982.91;7392536;19;20480;-45
2021/12/18 07:53:24;;;;;;;16.87;9.53;;;;;;;5.49;100.00;102988.47;7398625;19;20444;-43
2021/12/18 07:55:54;;;;;;;16.20;8.63;;;;;;;5.51;100.00;102987.00;7391498;19;20412;-49
2021/12/18 07:58:24;;;;;;;19.93;10.50;;;;;;;5.51;100.00;102991.19;7396759;19;20806;-44
2021/12/18 08:00:54;;;;;;;17.20;8.53;;;;;;;5.49;100.00;102991.03;7393889;19;20502;-46
2021/12/18 08:03:26;;;;;;;16.30;7.50;;;;;;;5.46;100.00;102988.19;7405776;19;20400;-47
2021/12/18 08:05:56;;;;;;;12.97;7.40;;;;;;;5.46;100.00;102987.28;7398153;19;20662;-44
2021/12/18 08:08:25;;;;;;;16.83;7.10;;;;;;;5.44;100.00;102982.00;7402735;19;20415;-45
2021/12/18 08:10:55;;;;;;;12.70;6.87;;;;;;;5.42;100.00;102982.63;7399061;19;20743;-45
2021/12/18 08:13:24;;;;;;;16.13;6.73;;;;;;;5.42;100.00;102986.06;7405574;19;20455;-43
2021/12/18 08:15:54;;;;;;;14.93;6.63;;;;;;;5.37;100.00;102984.69;7398463;19;20478;-43
2021/12/18 08:18:23;;;;;;;11.63;6.00;;;;;;;5.34;100.00;102989.53;7402922;19;20735;-42
2021/12/18 08:20:55;;;;;;;17.57;7.50;;;;;;;5.32;100.00;102978.25;7398741;19;20407;-47
2021/12/18 08:23:25;;;;;;;20.53;8.90;;;;;;;5.33;100.00;102991.19;7408761;19;20395;-43
2021/12/18 08:25:54;;;;;;;16.50;8.97;;;;;;;5.33;100.00;102992.84;7397652;19;20427;-47
2021/12/18 08:28:24;;;;;;;18.70;9.27;;;;;;;5.32;100.00;102991.94;7402777;19;20483;-44
2021/12/18 08:30:53;;;;;;;15.90;7.97;;;;;;;5.30;100.00;102985.78;7398918;19;20423;-43
2021/12/18 08:33:23;;;;;;;19.47;9.20;;;;;;;5.30;100.00;102992.53;7404911;19;20397;-45
2021/12/18 08:35:55;;;;;;;18.60;9.33;;;;;;;5.35;100.00;102988.78;7397789;19;20416;-44
2021/12/18 08:38:25;;;;;;;20.37;9.07;;;;;;;5.35;100.00;102986.22;7402456;19;20417;-43
2021/12/18 08:40:54;;;;;;;17.53;9.20;;;;;;;5.34;100.00;102982.75;7398196;19;20932;-43
2021/12/18 08:43:24;;;;;;;18.73;9.73;;;;;;;5.36;100.00;102990.59;7404764;19;20409;-48
2021/12/18 08:45:54;;;;;;;15.07;8.93;;;;;;;5.38;100.00;102994.19;7397707;19;20479;-44
2021/12/18 08:48:23;;;;;;;15.57;8.10;;;;;;;5.34;100.00;102987.84;7402098;19;20878;-49
2021/12/18 08:50:55;;;;;;;11.83;6.77;;;;;;;5.34;100.00;102984.41;7397699;19;20427;-43
2021/12/18 08:53:25;;;;;;;15.13;7.73;;;;;;;5.35;100.00;102986.22;7404322;19;20392;-46
2021/12/18 08:55:54;;;;;;;9.80;5.67;;;;;;;5.33;100.00;102995.41;7399743;19;20506;-43
2021/12/18 08:58:24;;;;;;;9.00;4.90;;;;;;;5.33;100.00;102992.84;7401567;19;20419;-48
2021/12/18 09:00:53;;;;;;;12.63;6.53;;;;;;;5.35;100.00;102984.56;7396779;19;20425;-43
2021/12/18 09:03:23;;;;;;;13.23;7.13;;;;;;;5.31;100.00;102990.13;7403528;19;20855;-45
2021/12/18 09:05:54;;;;;;;10.90;5.77;;;;;;;5.30;100.00;102987.41;7394933;19;20440;-46
2021/12/18 09:08:26;;;;;;;10.33;5.13;;;;;;;5.31;100.00;102994.34;7401146;19;20412;-43
2021/12/18 09:10:55;;;;;;;8.60;5.30;;;;;;;5.33;100.00;102990.28;7396924;19;20442;-46
2021/12/18 09:13:25;;;;;;;11.20;5.57;;;;;;;5.38;100.00;102994.19;7401263;19;20388;-45
2021/12/18 09:15:54;;;;;;;8.73;4.93;;;;;;;5.36;100.00;102991.50;7396671;19;20427;-43
2021/12/18 09:18:24;;;;;;;7.87;4.77;;;;;;;5.36;100.00;102985.47;7401307;19;20424;-45
2021/12/18 09:20:53;;;;;;;6.97;4.20;;;;;;;5.33;100.00;102991.19;7397135;19;20409;-44
2021/12/18 09:23:25;;;;;;;5.53;3.10;;;;;;;5.36;100.00;102990.59;7403203;19;20396;-47
2021/12/18 09:25:55;;;;;;;4.80;2.90;;;;;;;5.37;100.00;102983.06;7394514;19;20767;-42
2021/12/18 09:28:24;;;;;;;6.07;3.07;;;;;;;5.36;100.00;102975.22;7401110;19;20490;-46
2021/12/18 09:30:54;;;;;;;5.40;2.70;;;;;;;5.36;100.00;102971.03;7397240;19;20434;-45
2021/12/18 09:33:23;;;;;;;5.37;2.27;;;;;;;5.38;100.00;102973.69;7402996;19;20662;-43
2021/12/18 09:35:53;;;;;;;4.47;2.30;;;;;;;5.40;100.00;102970.53;7395993;19;20510;-44
2021/12/18 09:38:22;;;;;;;3.17;2.20;;;;;;;5.44;100.00;102964.06;7400991;19;20412;-47
2021/12/18 09:40:54;;;;;;;8.30;2.73;;;;;;;5.45;100.00;102958.22;7396864;19;20418;-43
2021/12/18 09:43:24;;;;;;;5.20;2.77;;;;;;;5.45;100.00;102955.66;7402933;19;20455;-45
2021/12/18 09:45:53;;;;;;;3.53;2.20;;;;;;;5.48;100.00;102961.06;7395378;19;20427;-43
2021/12/18 09:48:24;;;;;;;3.70;2.10;;;;;;;5.49;100.00;102962.88;7400909;19;20418;-44
2021/12/18 09:50:57;;;;;;;5.07;2.50;;;;;;;5.55;100.00;102960.03;7395798;19;20474;-43
2021/12/18 09:53:26;;;;;;;7.73;3.77;;;;;;;5.57;100.00;102965.28;7402370;19;20725;-45
2021/12/18 09:55:58;;;;;;;12.73;4.03;;;;;;;5.58;100.00;102962.88;7395669;19;20901;-44
2021/12/18 09:58:28;;;;;;;7.40;4.57;;;;;;;5.63;100.00;102953.06;7400598;19;20426;-43
2021/12/18 10:00:57;;;;;;;11.43;4.93;;;;;;;5.66;100.00;102959.38;7396018;19;20883;-43
2021/12/18 10:03:45;;;;;;;10.70;5.37;;;;;;;5.68;100.00;102954.41;7401949;19;20398;-43
2021/12/18 10:06:33;;;;;;;13.63;6.17;;;;;;;5.67;100.00;102947.50;7393862;19;20454;-46
2021/12/18 10:09:03;;;;;;;19.50;7.03;;;;;;;5.74;100.00;102949.00;7401217;19;20403;-43
2021/12/18 10:11:36;;;;;;;10.60;5.50;;;;;;;5.75;100.00;102945.69;7395396;19;20864;-48
2021/12/18 10:14:06;;;;;;;11.63;6.57;;;;;;;5.78;100.00;102941.75;7401784;19;20804;-48
2021/12/18 10:16:44;;;;;;;17.17;7.30;;;;;;;5.82;100.00;102942.94;7394755;19;20916;-45
2021/12/18 10:19:26;;;;;;;17.20;7.27;;;;;;;5.85;100.00;102943.22;7405227;19;20395;-46
2021/12/18 10:21:59;;;;;;;12.07;6.40;;;;;;;5.88;100.00;102938.41;7401206;19;20879;-43
2021/12/18 10:24:30;;;;;;;10.50;6.07;;;;;;;5.97;100.00;102928.16;7395655;19;20392;-45
2021/12/18 10:27:02;;;;;;;10.20;5.70;;;;;;;6.06;100.00;102921.34;7398696;19;20424;-47
2021/12/18 10:29:34;;;;;;;14.37;6.33;;;;;;;6.13;100.00;102922.84;7395902;19;20709;-42
2021/12/18 10:32:09;;;;;;;14.37;7.17;;;;;;;6.15;100.00;102907.63;7401063;19;20407;-45
2021/12/18 10:34:39;;;;;;;13.13;7.10;;;;;;;6.50;100.00;102911.69;7395571;19;20657;-46
2021/12/18 10:37:17;;;;;;;18.47;8.93;;;;;;;6.57;100.00;102909.81;7399651;19;20475;-48
2021/12/18 10:39:57;;;;;;;13.67;6.20;;;;;;;6.67;100.00;102897.84;7394951;19;20484;-47
2021/12/18 10:42:31;;;;;;;16.77;5.60;;;;;;;6.54;100.00;102890.66;7401112;19;20393;-44
2021/12/18 10:45:08;;;;;;;15.10;5.23;;;;;;;6.76;100.00;102878.16;7394607;19;20442;-46
2021/12/18 10:47:56;;;;;;;13.37;5.30;;;;;;;6.66;100.00;102878.09;7398426;19;20771;-47
2021/12/18 10:50:33;;;;;;;24.30;5.73;;;;;;;6.52;100.00;102880.28;7394506;19;20428;-43
2021/12/18 10:53:06;;;;;;;8.80;4.50;;;;;;;6.56;100.00;102869.53;7400417;19;20432;-45
2021/12/18 10:55:41;;;;;;;15.17;5.83;;;;;;;6.51;100.00;102872.44;7393774;19;20425;-48
2021/12/18 10:58:14;;;;;;;11.03;4.00;;;;;;;6.48;100.00;102862.81;7399313;19;20475;-44
2021/12/18 11:00:48;;;;;;;13.97;4.63;;;;;;;6.51;100.00;102862.19;7396180;19;20435;-48
2021/12/18 11:03:33;;;;;;;19.50;4.20;;;;;;;6.52;100.00;102849.50;7400205;19;20408;-44
2021/12/18 11:06:17;;;;;;;16.40;5.50;;;;;;;6.57;100.00;102849.94;7392927;19;20939;-47
2021/12/18 11:09:12;;;;;;;10.90;4.83;;;;;;;6.62;100.00;102847.00;7399683;19;20463;-46
2021/12/18 11:14:39;;;;;;;16.63;5.90;;;;;;;6.61;100.00;102818.63;7394525;19;20389;-46
2021/12/18 11:17:12;;;;;;;17.97;5.40;;;;;;;6.66;100.00;102837.03;7398563;19;21339;-49
2021/12/18 11:19:43;;;;;;;10.63;5.40;;;;;;;6.65;100.00;102827.53;7394253;19;20489;-48
2021/12/18 11:22:15;;;;;;;17.20;6.17;;;;;;;6.68;100.00;102830.38;7399790;19;20442;-45
2021/12/18 11:24:51;;;;;;;13.30;6.23;;;;;;;6.66;100.00;102829.34;7393321;19;20421;-44
2021/12/18 11:27:23;;;;;;;18.70;7.27;;;;;;;6.72;100.00;102832.47;7397922;19;20424;-44
2021/12/18 11:29:56;;;;;;;22.40;6.40;;;;;;;6.70;100.00;102824.63;7393540;19;20485;-44
2021/12/18 11:32:28;;;;;;;13.83;7.77;;;;;;;6.69;100.00;102820.25;7399474;19;20400;-45
2021/12/18 11:34:59;;;;;;;16.60;7.50;;;;;;;6.74;100.00;102818.09;7394160;19;20480;-45
2021/12/18 11:37:29;;;;;;;18.57;7.50;;;;;;;6.75;100.00;102807.06;7411529;19;20417;-43
2021/12/18 11:40:04;;;;;;;17.63;6.70;;;;;;;6.77;100.00;102807.22;7407326;19;20433;-48
2021/12/18 11:42:35;;;;;;;18.23;6.80;;;;;;;6.81;100.00;102796.47;7413760;19;20394;-47
2021/12/18 11:45:09;;;;;;;21.17;8.07;;;;;;;6.88;100.00;102804.84;7407014;19;20412;-53
2021/12/18 11:47:40;;;;;;;15.60;6.50;;;;;;;6.92;100.00;102790.63;7411787;19;20424;-52
2021/12/18 11:50:24;;;;;;;15.10;5.63;;;;;;;7.03;100.00;102787.34;7406415;19;20427;-49
2021/12/18 11:53:02;;;;;;;12.97;6.13;;;;;;;7.00;100.00;102783.59;7413147;19;20868;-43
2021/12/18 11:55:34;;;;;;;20.23;8.90;;;;;;;7.06;100.00;102789.28;7406616;19;20862;-47
2021/12/18 11:58:04;;;;;;;21.03;9.57;;;;;;;7.21;100.00;102784.59;7411786;19;20440;-44
2021/12/18 12:00:50;;;;;;;19.13;8.97;;;;;;;7.24;100.00;102779.72;7406820;19;20891;-45
2021/12/18 12:03:34;;;;;;;9.37;5.30;;;;;;;7.16;100.00;102789.34;7412868;19;20395;-43
2021/12/18 12:06:06;;;;;;;19.43;5.03;;;;;;;7.18;100.00;102783.44;7405655;19;20412;-44
2021/12/18 12:08:41;;;;;;;15.93;5.13;;;;;;;7.17;100.00;102782.53;7410519;19;20488;-47